Skip Navigation LinksHome page > Weather > Current weather Skip Navigation Links

Current Weather

Chicago O'Hare Intl, Chicago

For information only: do not use for flight planning or navigation.
Latest weather
Observation time Sunday, January 25, 2015 8:06 AM CST
Local time Sunday, January 25, 2015 8:13 AM CST
Flight conditions Instrument Meteorological Conditions
Winds
Wind direction North-Northeast (30°)
Wind speed 16 mph
Wind gusting to 25 mph
Visibility 1.5 mi.
Present weather light snow, mist
Sky condition
Ceiling 800 ft. overcast
Cloud layer overcast 800 ft.
Temperature 31°F
Dewpoint 29°F
Altimeter 29.75 in.Hg
Precipitation
Ice pellets ended 8:00 AM
Precipitation last hour 0.01 in.
Derived measurements
Relative humidity 92%
Wind chill 20°F
Density altitude -960 ft.
Remarks
Special weather observation.
Automated weather observing station with precipitation discriminator.
Ceiling.
METAR SPUS99 KWBC 251409 SPECI KORD 251406Z 03014G22KT 1 1/2SM -SN BR OVC008 M01/M02 A2975 RMK AO2 PLE00 CIG 006V011 P0001 T10061017

Settings

Location code

InnerDrive.Weather 4.0.5503.0 Release CLR 4.0.30319.34014
Copyright ©2015 Inner Drive Technology. All rights reserved. Portions Copyright ©1986-2015 David Braverman.

Find weather

Site navigation


Skip Navigation Links

Place info

Page info

PayPal - The safer, easier way to pay online!

Return home.

Copyright ©2015 Inner Drive Technology. Purveyors of fine, hand-crafted computer software. Page printed 2015-01-25T14:13:44 UTC.